sensor_id;sensor_type;location;lat;lon;timestamp;pressure;altitude;pressure_sealevel;temperature;humidity
13124;BME280;6627;50.920;12.050;2023-04-08T00:02:16;99013.69;;;13.00;56.20
13124;BME280;6627;50.920;12.050;2023-04-08T00:04:43;99056.00;;;13.28;56.24
13124;BME280;6627;50.920;12.050;2023-04-08T00:07:10;98990.63;;;12.66;57.57
13124;BME280;6627;50.920;12.050;2023-04-08T00:09:38;99162.38;;;14.03;56.51
13124;BME280;6627;50.920;12.050;2023-04-08T00:12:05;99080.63;;;13.54;55.68
13124;BME280;6627;50.920;12.050;2023-04-08T00:14:34;99148.69;;;14.25;54.46
13124;BME280;6627;50.920;12.050;2023-04-08T00:17:22;99099.09;;;13.66;55.76
13124;BME280;6627;50.920;12.050;2023-04-08T00:19:50;99156.41;;;14.23;55.33
13124;BME280;6627;50.920;12.050;2023-04-08T00:22:17;99061.66;;;13.18;56.65
13124;BME280;6627;50.920;12.050;2023-04-08T00:24:45;99082.44;;;13.68;55.50
13124;BME280;6627;50.920;12.050;2023-04-08T00:27:12;98983.44;;;12.93;55.30
13124;BME280;6627;50.920;12.050;2023-04-08T00:29:40;99083.44;;;13.72;55.17
13124;BME280;6627;50.920;12.050;2023-04-08T00:32:07;99066.00;;;13.42;56.12
13124;BME280;6627;50.920;12.050;2023-04-08T00:34:35;99034.97;;;13.20;56.09
13124;BME280;6627;50.920;12.050;2023-04-08T00:37:03;99064.88;;;13.20;56.82
13124;BME280;6627;50.920;12.050;2023-04-08T00:39:30;99079.28;;;13.74;54.96
13124;BME280;6627;50.920;12.050;2023-04-08T00:41:57;99051.81;;;13.08;56.78
13124;BME280;6627;50.920;12.050;2023-04-08T00:44:24;99052.03;;;12.90;58.09
13124;BME280;6627;50.920;12.050;2023-04-08T00:46:53;99042.13;;;13.16;56.41
13124;BME280;6627;50.920;12.050;2023-04-08T00:49:20;99068.63;;;13.24;57.40
13124;BME280;6627;50.920;12.050;2023-04-08T00:52:07;99078.72;;;13.32;56.30
13124;BME280;6627;50.920;12.050;2023-04-08T00:54:35;99097.88;;;13.50;56.39
13124;BME280;6627;50.920;12.050;2023-04-08T00:57:03;99202.44;;;14.73;54.33
13124;BME280;6627;50.920;12.050;2023-04-08T00:59:31;99153.69;;;14.32;54.76
13124;BME280;6627;50.920;12.050;2023-04-08T01:02:16;99129.91;;;14.15;54.80
13124;BME280;6627;50.920;12.050;2023-04-08T01:05:01;99118.25;;;13.83;55.35
13124;BME280;6627;50.920;12.050;2023-04-08T01:07:33;99196.66;;;14.66;54.07
13124;BME280;6627;50.920;12.050;2023-04-08T01:10:06;99007.91;;;13.15;54.96
13124;BME280;6627;50.920;12.050;2023-04-08T01:12:48;99154.44;;;14.15;55.50
13124;BME280;6627;50.920;12.050;2023-04-08T01:15:17;99043.50;;;13.27;55.74
13124;BME280;6627;50.920;12.050;2023-04-08T01:17:47;99209.06;;;14.89;53.96
13124;BME280;6627;50.920;12.050;2023-04-08T01:20:20;99141.50;;;14.29;54.43
13124;BME280;6627;50.920;12.050;2023-04-08T01:23:07;99144.50;;;14.19;54.28
13124;BME280;6627;50.920;12.050;2023-04-08T01:25:37;99125.41;;;14.10;53.92
13124;BME280;6627;50.920;12.050;2023-04-08T01:28:09;99080.88;;;13.44;55.76
13124;BME280;6627;50.920;12.050;2023-04-08T01:30:38;99025.38;;;12.78;56.80
13124;BME280;6627;50.920;12.050;2023-04-08T01:33:09;99073.38;;;13.50;55.41
13124;BME280;6627;50.920;12.050;2023-04-08T01:35:38;99062.03;;;13.03;57.20
13124;BME280;6627;50.920;12.050;2023-04-08T01:38:08;99086.31;;;13.22;57.68
13124;BME280;6627;50.920;12.050;2023-04-08T01:40:38;99015.63;;;12.77;56.64
13124;BME280;6627;50.920;12.050;2023-04-08T01:43:12;99030.88;;;12.64;58.78
13124;BME280;6627;50.920;12.050;2023-04-08T01:45:41;99135.47;;;13.70;56.25
13124;BME280;6627;50.920;12.050;2023-04-08T01:48:12;99079.09;;;13.17;57.46
13124;BME280;6627;50.920;12.050;2023-04-08T01:50:41;99089.84;;;13.45;56.16
13124;BME280;6627;50.920;12.050;2023-04-08T01:53:10;99126.81;;;13.99;55.23
13124;BME280;6627;50.920;12.050;2023-04-08T01:55:40;99079.28;;;13.43;55.74
13124;BME280;6627;50.920;12.050;2023-04-08T01:58:16;99106.41;;;13.57;56.03
13124;BME280;6627;50.920;12.050;2023-04-08T02:00:44;99066.97;;;13.01;57.64
13124;BME280;6627;50.920;12.050;2023-04-08T02:03:16;99138.81;;;13.98;55.61
13124;BME280;6627;50.920;12.050;2023-04-08T02:05:45;99101.16;;;13.92;54.64
13124;BME280;6627;50.920;12.050;2023-04-08T02:08:28;99112.94;;;13.78;54.66
13124;BME280;6627;50.920;12.050;2023-04-08T02:10:55;99184.06;;;14.48;54.04
13124;BME280;6627;50.920;12.050;2023-04-08T02:13:24;99177.72;;;14.61;53.09
13124;BME280;6627;50.920;12.050;2023-04-08T02:15:58;99060.19;;;13.34;55.38
13124;BME280;6627;50.920;12.050;2023-04-08T02:18:30;99137.31;;;13.83;55.46
13124;BME280;6627;50.920;12.050;2023-04-08T02:21:05;99077.63;;;13.33;55.62
13124;BME280;6627;50.920;12.050;2023-04-08T02:23:37;99126.78;;;13.91;55.08
13124;BME280;6627;50.920;12.050;2023-04-08T02:26:11;99124.00;;;13.51;56.58
13124;BME280;6627;50.920;12.050;2023-04-08T02:28:41;99187.41;;;14.45;55.11
13124;BME280;6627;50.920;12.050;2023-04-08T02:31:11;99232.50;;;14.99;53.79
13124;BME280;6627;50.920;12.050;2023-04-08T02:33:40;99127.38;;;14.19;53.85
13124;BME280;6627;50.920;12.050;2023-04-08T02:36:10;99180.91;;;14.54;53.73
13124;BME280;6627;50.920;12.050;2023-04-08T02:38:38;99130.53;;;14.03;54.30
13124;BME280;6627;50.920;12.050;2023-04-08T02:41:05;99084.59;;;13.48;55.16
13124;BME280;6627;50.920;12.050;2023-04-08T02:43:32;99184.00;;;14.30;54.89
13124;BME280;6627;50.920;12.050;2023-04-08T02:46:01;99147.56;;;13.86;55.48
13124;BME280;6627;50.920;12.050;2023-04-08T02:48:29;99119.63;;;13.72;55.51
13124;BME280;6627;50.920;12.050;2023-04-08T02:50:56;99121.44;;;13.85;55.18
13124;BME280;6627;50.920;12.050;2023-04-08T02:53:24;99114.06;;;13.77;55.30
13124;BME280;6627;50.920;12.050;2023-04-08T02:55:51;99141.25;;;14.00;55.31
13124;BME280;6627;50.920;12.050;2023-04-08T02:58:18;99061.53;;;13.01;56.87
13124;BME280;6627;50.920;12.050;2023-04-08T03:00:45;99030.00;;;12.77;57.07
13124;BME280;6627;50.920;12.050;2023-04-08T03:03:15;99136.19;;;13.84;55.81
13124;BME280;6627;50.920;12.050;2023-04-08T03:05:42;99122.34;;;13.72;55.56
13124;BME280;6627;50.920;12.050;2023-04-08T03:08:09;99193.22;;;14.52;54.69
13124;BME280;6627;50.920;12.050;2023-04-08T03:10:36;99203.09;;;14.70;54.08
13124;BME280;6627;50.920;12.050;2023-04-08T03:13:03;99195.69;;;14.62;53.70
13124;BME280;6627;50.920;12.050;2023-04-08T03:15:31;99162.53;;;14.37;53.82
13124;BME280;6627;50.920;12.050;2023-04-08T03:17:58;99117.56;;;14.09;53.71
13124;BME280;6627;50.920;12.050;2023-04-08T03:20:26;99157.38;;;14.27;54.18
13124;BME280;6627;50.920;12.050;2023-04-08T03:22:54;99128.34;;;14.23;53.14
13124;BME280;6627;50.920;12.050;2023-04-08T03:25:21;99188.19;;;14.85;52.60
13124;BME280;6627;50.920;12.050;2023-04-08T03:27:48;99180.44;;;14.61;53.13
13124;BME280;6627;50.920;12.050;2023-04-08T03:30:15;99120.75;;;14.11;53.61
13124;BME280;6627;50.920;12.050;2023-04-08T03:32:43;99160.31;;;14.39;53.61
13124;BME280;6627;50.920;12.050;2023-04-08T03:35:10;99127.75;;;13.95;54.70
13124;BME280;6627;50.920;12.050;2023-04-08T03:37:38;99088.50;;;13.56;55.22
13124;BME280;6627;50.920;12.050;2023-04-08T03:40:08;99142.28;;;13.81;55.78
13124;BME280;6627;50.920;12.050;2023-04-08T03:42:35;99114.16;;;13.72;55.14
13124;BME280;6627;50.920;12.050;2023-04-08T03:45:03;99087.13;;;13.45;55.56
13124;BME280;6627;50.920;12.050;2023-04-08T03:47:31;99070.44;;;12.93;57.44
13124;BME280;6627;50.920;12.050;2023-04-08T03:49:58;99091.19;;;13.25;56.95
13124;BME280;6627;50.920;12.050;2023-04-08T03:52:25;99151.56;;;13.58;57.16
13124;BME280;6627;50.920;12.050;2023-04-08T03:54:54;99112.69;;;12.99;58.44
13124;BME280;6627;50.920;12.050;2023-04-08T03:57:21;99136.03;;;13.36;56.77
13124;BME280;6627;50.920;12.050;2023-04-08T03:59:48;99217.13;;;14.24;55.64
13124;BME280;6627;50.920;12.050;2023-04-08T04:02:16;99145.56;;;13.47;56.45
13124;BME280;6627;50.920;12.050;2023-04-08T04:04:43;99207.50;;;14.18;55.65
13124;BME280;6627;50.920;12.050;2023-04-08T04:07:10;99040.75;;;12.60;57.02
13124;BME280;6627;50.920;12.050;2023-04-08T04:09:38;99109.84;;;13.04;57.15
13124;BME280;6627;50.920;12.050;2023-04-08T04:12:06;99077.94;;;12.73;57.23
13124;BME280;6627;50.920;12.050;2023-04-08T04:14:34;99209.53;;;14.12;55.43
13124;BME280;6627;50.920;12.050;2023-04-08T04:17:01;99205.06;;;14.16;54.98
13124;BME280;6627;50.920;12.050;2023-04-08T04:19:29;99167.94;;;13.67;55.59
13124;BME280;6627;50.920;12.050;2023-04-08T04:21:57;99222.13;;;14.30;54.43
13124;BME280;6627;50.920;12.050;2023-04-08T04:24:24;99183.59;;;13.61;55.93
13124;BME280;6627;50.920;12.050;2023-04-08T04:26:51;99297.41;;;14.80;54.76
13124;BME280;6627;50.920;12.050;2023-04-08T04:29:20;99101.28;;;12.74;57.31
13124;BME280;6627;50.920;12.050;2023-04-08T04:31:47;99094.84;;;12.70;57.28
13124;BME280;6627;50.920;12.050;2023-04-08T04:34:14;99134.53;;;12.71;58.79
13124;BME280;6627;50.920;12.050;2023-04-08T04:36:42;99243.97;;;14.08;56.28
13124;BME280;6627;50.920;12.050;2023-04-08T04:39:10;99145.88;;;13.23;56.36
13124;BME280;6627;50.920;12.050;2023-04-08T04:41:37;99134.44;;;12.62;58.71
13124;BME280;6627;50.920;12.050;2023-04-08T04:44:05;99194.41;;;13.30;58.04
13124;BME280;6627;50.920;12.050;2023-04-08T04:46:34;99147.91;;;13.04;57.25
13124;BME280;6627;50.920;12.050;2023-04-08T04:49:01;99189.16;;;13.33;57.79
13124;BME280;6627;50.920;12.050;2023-04-08T04:51:30;99130.13;;;12.98;56.97
13124;BME280;6627;50.920;12.050;2023-04-08T04:53:58;99277.25;;;14.27;55.69
13124;BME280;6627;50.920;12.050;2023-04-08T04:56:25;99156.53;;;13.33;56.01
13124;BME280;6627;50.920;12.050;2023-04-08T04:58:52;99171.22;;;13.19;56.89
13124;BME280;6627;50.920;12.050;2023-04-08T05:01:19;99164.69;;;12.83;58.13
13124;BME280;6627;50.920;12.050;2023-04-08T05:03:48;99112.59;;;12.54;57.98
13124;BME280;6627;50.920;12.050;2023-04-08T05:06:15;99204.50;;;13.29;58.13
13124;BME280;6627;50.920;12.050;2023-04-08T05:08:42;99298.44;;;14.30;56.22
13124;BME280;6627;50.920;12.050;2023-04-08T05:11:09;99200.06;;;13.56;55.77
13124;BME280;6627;50.920;12.050;2023-04-08T05:13:37;99213.97;;;13.54;56.54
13124;BME280;6627;50.920;12.050;2023-04-08T05:16:05;99176.28;;;13.25;56.30
13124;BME280;6627;50.920;12.050;2023-04-08T05:18:32;99216.31;;;13.47;57.00
13124;BME280;6627;50.920;12.050;2023-04-08T05:21:01;99194.97;;;13.41;56.44
13124;BME280;6627;50.920;12.050;2023-04-08T05:23:28;99139.78;;;12.54;58.18
13124;BME280;6627;50.920;12.050;2023-04-08T05:25:55;99210.81;;;13.38;57.36
13124;BME280;6627;50.920;12.050;2023-04-08T05:28:22;99203.53;;;13.70;55.07
13124;BME280;6627;50.920;12.050;2023-04-08T05:30:50;99069.59;;;12.06;57.54
13124;BME280;6627;50.920;12.050;2023-04-08T05:33:18;99133.75;;;12.29;59.17
13124;BME280;6627;50.920;12.050;2023-04-08T05:35:45;99169.50;;;12.86;57.83
13124;BME280;6627;50.920;12.050;2023-04-08T05:38:14;99215.38;;;13.29;56.87
13124;BME280;6627;50.920;12.050;2023-04-08T05:40:41;99240.13;;;13.42;58.40
13124;BME280;6627;50.920;12.050;2023-04-08T05:43:08;99262.06;;;13.81;57.01
13124;BME280;6627;50.920;12.050;2023-04-08T05:45:35;99161.47;;;12.81;57.59
13124;BME280;6627;50.920;12.050;2023-04-08T05:48:03;99214.78;;;13.05;58.55
13124;BME280;6627;50.920;12.050;2023-04-08T05:50:30;99188.16;;;12.79;58.28
13124;BME280;6627;50.920;12.050;2023-04-08T05:52:57;99153.28;;;12.45;59.23
13124;BME280;6627;50.920;12.050;2023-04-08T05:55:26;99223.72;;;13.19;58.62
13124;BME280;6627;50.920;12.050;2023-04-08T05:57:53;99233.69;;;13.37;57.95
13124;BME280;6627;50.920;12.050;2023-04-08T06:00:20;99117.47;;;12.02;59.05
13124;BME280;6627;50.920;12.050;2023-04-08T06:02:48;99197.13;;;12.38;60.90
13124;BME280;6627;50.920;12.050;2023-04-08T06:05:15;99299.09;;;13.69;58.39
13124;BME280;6627;50.920;12.050;2023-04-08T06:07:44;99251.66;;;13.25;58.59
13124;BME280;6627;50.920;12.050;2023-04-08T06:10:11;99292.13;;;13.26;59.22
13124;BME280;6627;50.920;12.050;2023-04-08T06:12:40;99313.53;;;13.92;57.09
13124;BME280;6627;50.920;12.050;2023-04-08T06:15:08;99221.06;;;12.92;57.73
13124;BME280;6627;50.920;12.050;2023-04-08T06:17:35;99368.91;;;14.23;57.33
13124;BME280;6627;50.920;12.050;2023-04-08T06:20:05;99214.59;;;13.01;56.77
13124;BME280;6627;50.920;12.050;2023-04-08T06:22:34;99420.06;;;14.94;55.53
13124;BME280;6627;50.920;12.050;2023-04-08T06:25:01;99153.44;;;12.76;56.38
13124;BME280;6627;50.920;12.050;2023-04-08T06:27:29;99236.97;;;12.98;58.09
13124;BME280;6627;50.920;12.050;2023-04-08T06:29:57;99289.41;;;13.12;59.13
13124;BME280;6627;50.920;12.050;2023-04-08T06:32:25;99290.88;;;13.60;56.48
13124;BME280;6627;50.920;12.050;2023-04-08T06:34:52;99408.31;;;14.62;56.45
13124;BME280;6627;50.920;12.050;2023-04-08T06:37:19;99316.63;;;13.99;55.76
13124;BME280;6627;50.920;12.050;2023-04-08T06:39:46;99292.88;;;13.91;55.60
13124;BME280;6627;50.920;12.050;2023-04-08T06:42:13;99596.66;;;17.82;50.73
13124;BME280;6627;50.920;12.050;2023-04-08T06:44:41;99341.28;;;15.58;52.00
13124;BME280;6627;50.920;12.050;2023-04-08T06:47:09;99396.75;;;15.84;51.56
13124;BME280;6627;50.920;12.050;2023-04-08T06:49:36;99399.50;;;15.84;52.78
13124;BME280;6627;50.920;12.050;2023-04-08T06:52:03;99326.97;;;15.52;51.63
13124;BME280;6627;50.920;12.050;2023-04-08T06:54:31;99087.66;;;13.24;54.72
13124;BME280;6627;50.920;12.050;2023-04-08T06:56:58;99176.56;;;13.37;55.72
13124;BME280;6627;50.920;12.050;2023-04-08T06:59:25;99315.13;;;14.37;56.18
13124;BME280;6627;50.920;12.050;2023-04-08T07:01:52;99305.63;;;14.49;55.50
13124;BME280;6627;50.920;12.050;2023-04-08T07:04:21;99353.84;;;15.10;53.80
13124;BME280;6627;50.920;12.050;2023-04-08T07:06:49;99443.50;;;15.74;54.04
13124;BME280;6627;50.920;12.050;2023-04-08T07:09:16;99393.91;;;15.81;51.94
13124;BME280;6627;50.920;12.050;2023-04-08T07:11:43;99396.81;;;15.45;53.51
13124;BME280;6627;50.920;12.050;2023-04-08T07:14:11;99354.63;;;15.59;52.23
13124;BME280;6627;50.920;12.050;2023-04-08T07:16:38;99450.34;;;16.37;51.30
13124;BME280;6627;50.920;12.050;2023-04-08T07:19:06;99326.34;;;14.89;53.63
13124;BME280;6627;50.920;12.050;2023-04-08T07:21:34;99409.13;;;15.73;53.29
13124;BME280;6627;50.920;12.050;2023-04-08T07:24:01;99485.59;;;16.74;51.70
13124;BME280;6627;50.920;12.050;2023-04-08T07:26:28;99429.59;;;16.28;51.43
13124;BME280;6627;50.920;12.050;2023-04-08T07:28:56;99282.06;;;14.93;52.55
13124;BME280;6627;50.920;12.050;2023-04-08T07:31:23;99372.19;;;15.67;52.44
13124;BME280;6627;50.920;12.050;2023-04-08T07:33:50;99427.81;;;16.23;51.51
13124;BME280;6627;50.920;12.050;2023-04-08T07:36:18;99440.06;;;16.34;51.27
13124;BME280;6627;50.920;12.050;2023-04-08T07:38:47;99402.09;;;15.89;51.65
13124;BME280;6627;50.920;12.050;2023-04-08T07:41:14;99307.38;;;14.84;54.15
13124;BME280;6627;50.920;12.050;2023-04-08T07:43:41;99265.63;;;14.13;54.88
13124;BME280;6627;50.920;12.050;2023-04-08T07:46:09;99363.16;;;14.78;55.06
13124;BME280;6627;50.920;12.050;2023-04-08T07:48:36;99299.22;;;14.31;55.27
13124;BME280;6627;50.920;12.050;2023-04-08T07:51:04;99363.25;;;14.96;54.13
13124;BME280;6627;50.920;12.050;2023-04-08T07:53:31;99188.34;;;13.19;56.81
13124;BME280;6627;50.920;12.050;2023-04-08T07:56:12;99288.53;;;13.89;56.08
13124;BME280;6627;50.920;12.050;2023-04-08T07:58:40;99384.25;;;14.64;56.19
13124;BME280;6627;50.920;12.050;2023-04-08T08:01:15;99453.72;;;15.20;55.86
13124;BME280;6627;50.920;12.050;2023-04-08T08:03:43;99455.38;;;15.30;55.41
13124;BME280;6627;50.920;12.050;2023-04-08T08:06:10;99341.97;;;14.44;55.25
13124;BME280;6627;50.920;12.050;2023-04-08T08:08:38;99499.47;;;15.85;54.15
13124;BME280;6627;50.920;12.050;2023-04-08T08:11:05;99325.38;;;14.54;53.97
13124;BME280;6627;50.920;12.050;2023-04-08T08:13:34;99388.34;;;14.30;57.09
13124;BME280;6627;50.920;12.050;2023-04-08T08:16:01;99334.78;;;13.67;57.94
13124;BME280;6627;50.920;12.050;2023-04-08T08:18:28;99362.91;;;14.12;56.50
13124;BME280;6627;50.920;12.050;2023-04-08T08:20:56;99442.06;;;14.97;55.83
13124;BME280;6627;50.920;12.050;2023-04-08T08:23:23;99449.47;;;14.74;56.59
13124;BME280;6627;50.920;12.050;2023-04-08T08:25:58;99503.56;;;15.34;56.00
13124;BME280;6627;50.920;12.050;2023-04-08T08:28:26;99444.47;;;14.99;55.26
13124;BME280;6627;50.920;12.050;2023-04-08T08:30:55;99499.13;;;15.16;56.57
13124;BME280;6627;50.920;12.050;2023-04-08T08:33:22;99491.50;;;15.67;54.44
13124;BME280;6627;50.920;12.050;2023-04-08T08:35:50;99497.06;;;15.53;55.00
13124;BME280;6627;50.920;12.050;2023-04-08T08:38:18;99553.13;;;15.81;55.30
13124;BME280;6627;50.920;12.050;2023-04-08T08:40:45;99559.88;;;16.58;52.62
13124;BME280;6627;50.920;12.050;2023-04-08T08:43:13;99522.94;;;15.86;54.49
13124;BME280;6627;50.920;12.050;2023-04-08T08:45:41;99616.09;;;16.73;53.29
13124;BME280;6627;50.920;12.050;2023-04-08T08:48:09;99480.06;;;15.56;53.99
13124;BME280;6627;50.920;12.050;2023-04-08T08:50:37;99512.19;;;15.99;53.17
13124;BME280;6627;50.920;12.050;2023-04-08T08:53:04;99562.97;;;16.65;51.60
13124;BME280;6627;50.920;12.050;2023-04-08T08:55:32;99446.44;;;15.47;53.83
13124;BME280;6627;50.920;12.050;2023-04-08T08:58:00;99471.69;;;15.52;53.76
13124;BME280;6627;50.920;12.050;2023-04-08T09:00:31;99459.03;;;15.25;54.53
13124;BME280;6627;50.920;12.050;2023-04-08T09:03:17;99463.16;;;15.45;53.78
13124;BME280;6627;50.920;12.050;2023-04-08T09:05:49;99461.41;;;15.58;53.99
13124;BME280;6627;50.920;12.050;2023-04-08T09:08:28;99592.78;;;16.84;52.31
13124;BME280;6627;50.920;12.050;2023-04-08T09:11:10;99596.31;;;16.94;51.81
13124;BME280;6627;50.920;12.050;2023-04-08T09:13:37;99547.13;;;16.19;53.39
13124;BME280;6627;50.920;12.050;2023-04-08T09:16:07;99539.47;;;16.56;51.74
13124;BME280;6627;50.920;12.050;2023-04-08T09:18:38;99558.44;;;16.44;52.30
13124;BME280;6627;50.920;12.050;2023-04-08T09:21:06;99653.97;;;17.32;51.56
13124;BME280;6627;50.920;12.050;2023-04-08T09:23:38;99657.94;;;17.52;50.32
13124;BME280;6627;50.920;12.050;2023-04-08T09:26:08;99531.09;;;16.61;51.16
13124;BME280;6627;50.920;12.050;2023-04-08T09:28:36;99566.03;;;16.90;50.90
13124;BME280;6627;50.920;12.050;2023-04-08T09:31:23;99511.16;;;16.34;51.51
13124;BME280;6627;50.920;12.050;2023-04-08T09:33:54;99479.88;;;15.92;51.88
13124;BME280;6627;50.920;12.050;2023-04-08T09:36:22;99576.81;;;16.69;52.16
13124;BME280;6627;50.920;12.050;2023-04-08T09:38:52;99535.75;;;16.43;51.69
13124;BME280;6627;50.920;12.050;2023-04-08T09:41:21;99488.25;;;15.96;51.86
13124;BME280;6627;50.920;12.050;2023-04-08T09:43:51;99584.41;;;16.89;51.09
13124;BME280;6627;50.920;12.050;2023-04-08T09:46:26;99568.56;;;16.43;52.44
13124;BME280;6627;50.920;12.050;2023-04-08T09:49:04;99673.13;;;17.49;51.40
13124;BME280;6627;50.920;12.050;2023-04-08T09:51:39;99619.63;;;17.34;50.60
13124;BME280;6627;50.920;12.050;2023-04-08T09:54:13;99558.16;;;17.06;49.69
13124;BME280;6627;50.920;12.050;2023-04-08T09:56:52;99458.16;;;15.87;52.16
13124;BME280;6627;50.920;12.050;2023-04-08T09:59:26;99674.69;;;17.68;50.76
13124;BME280;6627;50.920;12.050;2023-04-08T10:02:00;99453.38;;;16.01;51.57
13124;BME280;6627;50.920;12.050;2023-04-08T10:04:40;99575.84;;;17.17;50.41
13124;BME280;6627;50.920;12.050;2023-04-08T10:07:13;99682.28;;;18.26;48.99
13124;BME280;6627;50.920;12.050;2023-04-08T10:09:41;99477.03;;;16.58;50.02
13124;BME280;6627;50.920;12.050;2023-04-08T10:12:09;99781.66;;;19.17;48.34
13124;BME280;6627;50.920;12.050;2023-04-08T10:14:36;99618.59;;;17.82;50.04
13124;BME280;6627;50.920;12.050;2023-04-08T10:17:25;99582.88;;;17.44;50.19
13124;BME280;6627;50.920;12.050;2023-04-08T10:19:54;99626.13;;;18.03;49.30
13124;BME280;6627;50.920;12.050;2023-04-08T10:22:45;99561.16;;;17.39;50.04
13124;BME280;6627;50.920;12.050;2023-04-08T10:25:31;99658.81;;;18.08;50.05
13124;BME280;6627;50.920;12.050;2023-04-08T10:27:59;99660.84;;;18.58;48.01
13124;BME280;6627;50.920;12.050;2023-04-08T10:30:41;99468.66;;;16.63;51.19
13124;BME280;6627;50.920;12.050;2023-04-08T10:33:10;99606.38;;;17.71;50.37
13124;BME280;6627;50.920;12.050;2023-04-08T10:35:42;99586.34;;;17.79;48.84
13124;BME280;6627;50.920;12.050;2023-04-08T10:38:12;99596.03;;;17.85;49.23
13124;BME280;6627;50.920;12.050;2023-04-08T10:40:41;99486.06;;;16.84;49.98
13124;BME280;6627;50.920;12.050;2023-04-08T10:43:10;99710.47;;;18.82;48.61
13124;BME280;6627;50.920;12.050;2023-04-08T10:45:39;99512.56;;;17.27;48.75
13124;BME280;6627;50.920;12.050;2023-04-08T10:48:15;99562.50;;;17.15;50.81
13124;BME280;6627;50.920;12.050;2023-04-08T10:50:52;99592.53;;;17.59;49.47
13124;BME280;6627;50.920;12.050;2023-04-08T10:53:25;99509.50;;;17.20;49.29
13124;BME280;6627;50.920;12.050;2023-04-08T10:55:53;99516.56;;;17.21;49.01
13124;BME280;6627;50.920;12.050;2023-04-08T10:58:20;99503.13;;;16.81;50.09
13124;BME280;6627;50.920;12.050;2023-04-08T11:00:48;99619.06;;;17.93;48.89
13124;BME280;6627;50.920;12.050;2023-04-08T11:03:15;99564.56;;;17.92;47.86
13124;BME280;6627;50.920;12.050;2023-04-08T11:05:44;99839.44;;;20.34;46.08
13124;BME280;6627;50.920;12.050;2023-04-08T11:08:11;99447.22;;;17.00;48.78
13124;BME280;6627;50.920;12.050;2023-04-08T11:10:39;99616.09;;;18.36;47.71
13124;BME280;6627;50.920;12.050;2023-04-08T11:13:07;99489.25;;;17.04;49.82
13124;BME280;6627;50.920;12.050;2023-04-08T11:15:35;99511.31;;;17.63;48.23
13124;BME280;6627;50.920;12.050;2023-04-08T11:18:04;99576.19;;;18.18;47.70
13124;BME280;6627;50.920;12.050;2023-04-08T11:20:32;99497.09;;;17.31;48.65
13124;BME280;6627;50.920;12.050;2023-04-08T11:23:02;99536.22;;;17.70;48.27
13124;BME280;6627;50.920;12.050;2023-04-08T11:25:30;99695.22;;;18.94;48.15
13124;BME280;6627;50.920;12.050;2023-04-08T11:27:57;99625.84;;;18.84;46.75
13124;BME280;6627;50.920;12.050;2023-04-08T11:30:25;99429.34;;;17.11;47.87
13124;BME280;6627;50.920;12.050;2023-04-08T11:32:53;99572.69;;;18.09;48.21
13124;BME280;6627;50.920;12.050;2023-04-08T11:35:22;99501.94;;;17.64;48.18
13124;BME280;6627;50.920;12.050;2023-04-08T11:37:51;99568.91;;;17.93;48.36
13124;BME280;6627;50.920;12.050;2023-04-08T11:40:20;99677.13;;;18.93;47.62
13124;BME280;6627;50.920;12.050;2023-04-08T11:42:49;99605.59;;;18.09;48.81
13124;BME280;6627;50.920;12.050;2023-04-08T11:45:18;99523.31;;;17.79;47.64
13124;BME280;6627;50.920;12.050;2023-04-08T11:47:47;99566.34;;;17.87;48.79
13124;BME280;6627;50.920;12.050;2023-04-08T11:50:22;99552.66;;;17.79;48.91
13124;BME280;6627;50.920;12.050;2023-04-08T11:52:51;99607.50;;;18.17;49.09
13124;BME280;6627;50.920;12.050;2023-04-08T11:55:25;99574.25;;;17.89;49.04
13124;BME280;6627;50.920;12.050;2023-04-08T11:57:54;99565.03;;;17.94;48.29
13124;BME280;6627;50.920;12.050;2023-04-08T12:00:23;99489.81;;;17.35;48.76
13124;BME280;6627;50.920;12.050;2023-04-08T12:02:51;99739.72;;;19.50;47.03
13124;BME280;6627;50.920;12.050;2023-04-08T12:05:19;99773.91;;;20.03;45.95
13124;BME280;6627;50.920;12.050;2023-04-08T12:07:46;99586.28;;;18.35;47.25
13124;BME280;6627;50.920;12.050;2023-04-08T12:10:13;99522.25;;;17.63;48.85
13124;BME280;6627;50.920;12.050;2023-04-08T12:12:42;99330.25;;;16.06;49.68
13124;BME280;6627;50.920;12.050;2023-04-08T12:15:10;99592.44;;;17.94;49.13
13124;BME280;6627;50.920;12.050;2023-04-08T12:17:37;99557.88;;;17.63;49.61
13124;BME280;6627;50.920;12.050;2023-04-08T12:20:05;99542.84;;;17.69;48.02
13124;BME280;6627;50.920;12.050;2023-04-08T12:22:33;99389.56;;;16.40;49.36
13124;BME280;6627;50.920;12.050;2023-04-08T12:25:00;99533.00;;;17.21;50.14
13124;BME280;6627;50.920;12.050;2023-04-08T12:27:29;99423.00;;;16.20;51.26
13124;BME280;6627;50.920;12.050;2023-04-08T12:30:00;99647.84;;;18.08;49.07
13124;BME280;6627;50.920;12.050;2023-04-08T12:32:27;99530.78;;;17.06;50.39
13124;BME280;6627;50.920;12.050;2023-04-08T12:34:54;99694.19;;;18.77;47.62
13124;BME280;6627;50.920;12.050;2023-04-08T12:37:22;99550.84;;;17.45;49.03
13124;BME280;6627;50.920;12.050;2023-04-08T12:39:49;99469.97;;;16.22;51.75
13124;BME280;6627;50.920;12.050;2023-04-08T12:42:16;99611.50;;;17.81;49.40
13124;BME280;6627;50.920;12.050;2023-04-08T12:44:45;99599.00;;;17.46;50.32
13124;BME280;6627;50.920;12.050;2023-04-08T12:47:14;99659.13;;;18.15;49.50
13124;BME280;6627;50.920;12.050;2023-04-08T12:49:41;99524.97;;;17.16;49.50
13124;BME280;6627;50.920;12.050;2023-04-08T12:52:08;99418.47;;;16.59;49.15
13124;BME280;6627;50.920;12.050;2023-04-08T12:54:35;99616.38;;;17.67;49.94
13124;BME280;6627;50.920;12.050;2023-04-08T12:57:03;99571.84;;;17.70;48.44
13124;BME280;6627;50.920;12.050;2023-04-08T12:59:30;99659.63;;;18.47;47.95
13124;BME280;6627;50.920;12.050;2023-04-08T13:01:58;99670.38;;;18.60;47.94
13124;BME280;6627;50.920;12.050;2023-04-08T13:04:26;99577.50;;;17.82;48.37
13124;BME280;6627;50.920;12.050;2023-04-08T13:06:54;99641.72;;;18.40;47.50
13124;BME280;6627;50.920;12.050;2023-04-08T13:09:22;99736.44;;;19.14;46.97
13124;BME280;6627;50.920;12.050;2023-04-08T13:11:49;99547.22;;;17.61;49.08